sensor_id;sensor_type;location;lat;lon;timestamp;pressure;altitude;pressure_sealevel;temperature;humidity
54882;BME280;40775;51.448;4.742;2024-03-06T00:00:13;101723.34;;;7.47;100.00
54882;BME280;40775;51.448;4.742;2024-03-06T00:02:40;101723.06;;;7.41;100.00
54882;BME280;40775;51.448;4.742;2024-03-06T00:05:07;101715.91;;;7.19;100.00
54882;BME280;40775;51.448;4.742;2024-03-06T00:07:35;101719.41;;;7.20;100.00
54882;BME280;40775;51.448;4.742;2024-03-06T00:10:03;101727.19;;;7.18;100.00
54882;BME280;40775;51.448;4.742;2024-03-06T00:12:32;101727.78;;;7.12;100.00
54882;BME280;40775;51.448;4.742;2024-03-06T00:15:00;101730.28;;;7.11;100.00
54882;BME280;40775;51.448;4.742;2024-03-06T00:17:27;101735.63;;;7.12;100.00
54882;BME280;40775;51.448;4.742;2024-03-06T00:19:54;101745.06;;;7.10;100.00
54882;BME280;40775;51.448;4.742;2024-03-06T00:22:21;101745.06;;;7.10;100.00
54882;BME280;40775;51.448;4.742;2024-03-06T00:24:51;101743.13;;;7.06;100.00
54882;BME280;40775;51.448;4.742;2024-03-06T00:27:18;101749.31;;;7.08;100.00
54882;BME280;40775;51.448;4.742;2024-03-06T00:29:45;101750.88;;;7.05;100.00
54882;BME280;40775;51.448;4.742;2024-03-06T00:32:12;101749.56;;;6.95;100.00
54882;BME280;40775;51.448;4.742;2024-03-06T00:34:40;101758.06;;;6.91;100.00
54882;BME280;40775;51.448;4.742;2024-03-06T00:37:07;101756.03;;;6.86;100.00
54882;BME280;40775;51.448;4.742;2024-03-06T00:39:35;101755.31;;;6.88;100.00
54882;BME280;40775;51.448;4.742;2024-03-06T00:42:02;101761.34;;;6.87;100.00
54882;BME280;40775;51.448;4.742;2024-03-06T00:44:29;101759.22;;;6.80;100.00
54882;BME280;40775;51.448;4.742;2024-03-06T00:46:57;101748.84;;;6.81;100.00
54882;BME280;40775;51.448;4.742;2024-03-06T00:49:24;101756.69;;;6.81;100.00
54882;BME280;40775;51.448;4.742;2024-03-06T00:51:51;101754.06;;;6.81;100.00
54882;BME280;40775;51.448;4.742;2024-03-06T00:54:18;101760.72;;;6.75;100.00
54882;BME280;40775;51.448;4.742;2024-03-06T00:56:45;101764.13;;;6.74;100.00
54882;BME280;40775;51.448;4.742;2024-03-06T00:59:12;101772.63;;;6.70;100.00
54882;BME280;40775;51.448;4.742;2024-03-06T01:01:40;101770.25;;;6.74;100.00
54882;BME280;40775;51.448;4.742;2024-03-06T01:04:08;101773.53;;;6.70;100.00
54882;BME280;40775;51.448;4.742;2024-03-06T01:06:35;101782.91;;;6.67;100.00
54882;BME280;40775;51.448;4.742;2024-03-06T01:09:02;101774.34;;;6.69;100.00
54882;BME280;40775;51.448;4.742;2024-03-06T01:11:29;101765.63;;;6.69;100.00
54882;BME280;40775;51.448;4.742;2024-03-06T01:13:56;101768.91;;;6.65;100.00
54882;BME280;40775;51.448;4.742;2024-03-06T01:16:23;101781.28;;;6.69;100.00
54882;BME280;40775;51.448;4.742;2024-03-06T01:18:50;101782.63;;;6.61;100.00
54882;BME280;40775;51.448;4.742;2024-03-06T01:21:17;101776.50;;;6.60;100.00
54882;BME280;40775;51.448;4.742;2024-03-06T01:23:44;101785.47;;;6.49;100.00
54882;BME280;40775;51.448;4.742;2024-03-06T01:26:11;101781.97;;;6.48;100.00
54882;BME280;40775;51.448;4.742;2024-03-06T01:28:39;101785.38;;;6.47;100.00
54882;BME280;40775;51.448;4.742;2024-03-06T01:31:06;101786.22;;;6.46;100.00
54882;BME280;40775;51.448;4.742;2024-03-06T01:33:34;101786.56;;;6.36;100.00
54882;BME280;40775;51.448;4.742;2024-03-06T01:36:01;101788.03;;;6.31;100.00
54882;BME280;40775;51.448;4.742;2024-03-06T01:38:28;101792.97;;;6.27;100.00
54882;BME280;40775;51.448;4.742;2024-03-06T01:40:55;101794.44;;;6.22;100.00
54882;BME280;40775;51.448;4.742;2024-03-06T01:43:25;101788.91;;;6.15;100.00
54882;BME280;40775;51.448;4.742;2024-03-06T01:45:53;101794.88;;;6.13;100.00
54882;BME280;40775;51.448;4.742;2024-03-06T01:48:27;101795.69;;;6.12;100.00
54882;BME280;40775;51.448;4.742;2024-03-06T01:50:56;101789.59;;;6.11;100.00
54882;BME280;40775;51.448;4.742;2024-03-06T01:53:24;101800.09;;;6.13;100.00
54882;BME280;40775;51.448;4.742;2024-03-06T01:55:53;101803.31;;;5.93;100.00
54882;BME280;40775;51.448;4.742;2024-03-06T01:58:21;101807.63;;;5.92;100.00
54882;BME280;40775;51.448;4.742;2024-03-06T02:00:50;101794.53;;;5.91;100.00
54882;BME280;40775;51.448;4.742;2024-03-06T02:03:18;101804.06;;;5.90;100.00
54882;BME280;40775;51.448;4.742;2024-03-06T02:05:49;101800.34;;;5.86;100.00
54882;BME280;40775;51.448;4.742;2024-03-06T02:08:17;101809.97;;;5.87;100.00
54882;BME280;40775;51.448;4.742;2024-03-06T02:10:45;101808.81;;;5.82;100.00
54882;BME280;40775;51.448;4.742;2024-03-06T02:13:13;101808.50;;;5.76;100.00
54882;BME280;40775;51.448;4.742;2024-03-06T02:15:41;101812.88;;;5.77;100.00
54882;BME280;40775;51.448;4.742;2024-03-06T02:18:09;101813.78;;;5.78;100.00
54882;BME280;40775;51.448;4.742;2024-03-06T02:20:40;101816.69;;;5.68;100.00
54882;BME280;40775;51.448;4.742;2024-03-06T02:23:07;101822.28;;;5.59;100.00
54882;BME280;40775;51.448;4.742;2024-03-06T02:25:35;101826.69;;;5.60;100.00
54882;BME280;40775;51.448;4.742;2024-03-06T02:28:03;101831.81;;;5.58;100.00
54882;BME280;40775;51.448;4.742;2024-03-06T02:30:30;101827.25;;;5.54;100.00
54882;BME280;40775;51.448;4.742;2024-03-06T02:33:04;101819.34;;;5.53;100.00
54882;BME280;40775;51.448;4.742;2024-03-06T02:35:33;101825.19;;;5.49;100.00
54882;BME280;40775;51.448;4.742;2024-03-06T02:38:04;101834.50;;;5.45;100.00
54882;BME280;40775;51.448;4.742;2024-03-06T02:40:34;101830.75;;;5.40;100.00
54882;BME280;40775;51.448;4.742;2024-03-06T02:43:02;101824.72;;;5.41;100.00
54882;BME280;40775;51.448;4.742;2024-03-06T02:45:29;101838.47;;;5.39;100.00
54882;BME280;40775;51.448;4.742;2024-03-06T02:47:56;101827.50;;;5.44;100.00
54882;BME280;40775;51.448;4.742;2024-03-06T02:50:23;101832.19;;;5.50;100.00
54882;BME280;40775;51.448;4.742;2024-03-06T02:52:50;101829.38;;;5.47;100.00
54882;BME280;40775;51.448;4.742;2024-03-06T02:55:21;101832.09;;;5.48;100.00
54882;BME280;40775;51.448;4.742;2024-03-06T02:57:48;101827.50;;;5.59;100.00
54882;BME280;40775;51.448;4.742;2024-03-06T03:00:15;101839.69;;;5.60;100.00
54882;BME280;40775;51.448;4.742;2024-03-06T03:02:43;101836.13;;;5.58;100.00
54882;BME280;40775;51.448;4.742;2024-03-06T03:05:10;101834.16;;;5.54;100.00
54882;BME280;40775;51.448;4.742;2024-03-06T03:07:37;101829.44;;;5.63;100.00
54882;BME280;40775;51.448;4.742;2024-03-06T03:10:05;101836.53;;;5.66;100.00
54882;BME280;40775;51.448;4.742;2024-03-06T03:12:32;101833.50;;;5.58;100.00
54882;BME280;40775;51.448;4.742;2024-03-06T03:15:00;101838.56;;;5.55;100.00
54882;BME280;40775;51.448;4.742;2024-03-06T03:17:27;101830.91;;;5.43;100.00
54882;BME280;40775;51.448;4.742;2024-03-06T03:19:54;101834.06;;;5.52;100.00
54882;BME280;40775;51.448;4.742;2024-03-06T03:22:21;101835.13;;;5.56;100.00
54882;BME280;40775;51.448;4.742;2024-03-06T03:24:49;101839.28;;;5.52;100.00
54882;BME280;40775;51.448;4.742;2024-03-06T03:27:16;101841.63;;;5.48;100.00
54882;BME280;40775;51.448;4.742;2024-03-06T03:29:43;101842.41;;;5.47;100.00
54882;BME280;40775;51.448;4.742;2024-03-06T03:32:10;101840.63;;;5.46;100.00
54882;BME280;40775;51.448;4.742;2024-03-06T03:34:37;101841.09;;;5.39;100.00
54882;BME280;40775;51.448;4.742;2024-03-06T03:37:05;101849.88;;;5.41;100.00
54882;BME280;40775;51.448;4.742;2024-03-06T03:39:33;101844.91;;;5.45;100.00
54882;BME280;40775;51.448;4.742;2024-03-06T03:42:00;101839.13;;;5.35;100.00
54882;BME280;40775;51.448;4.742;2024-03-06T03:44:26;101854.09;;;5.39;100.00
54882;BME280;40775;51.448;4.742;2024-03-06T03:46:53;101842.78;;;5.38;100.00
54882;BME280;40775;51.448;4.742;2024-03-06T03:49:21;101847.00;;;5.36;100.00
54882;BME280;40775;51.448;4.742;2024-03-06T03:51:48;101851.16;;;5.33;100.00
54882;BME280;40775;51.448;4.742;2024-03-06T03:54:15;101847.47;;;5.29;100.00
54882;BME280;40775;51.448;4.742;2024-03-06T03:56:42;101856.75;;;5.24;100.00
54882;BME280;40775;51.448;4.742;2024-03-06T03:59:09;101849.00;;;5.25;100.00
54882;BME280;40775;51.448;4.742;2024-03-06T04:01:36;101850.09;;;5.29;100.00
54882;BME280;40775;51.448;4.742;2024-03-06T04:04:03;101855.22;;;5.27;100.00
54882;BME280;40775;51.448;4.742;2024-03-06T04:06:30;101852.44;;;5.24;100.00
54882;BME280;40775;51.448;4.742;2024-03-06T04:08:57;101851.97;;;5.17;100.00
54882;BME280;40775;51.448;4.742;2024-03-06T04:11:24;101853.25;;;5.23;100.00
54882;BME280;40775;51.448;4.742;2024-03-06T04:13:52;101850.16;;;5.16;100.00
54882;BME280;40775;51.448;4.742;2024-03-06T04:16:19;101853.66;;;5.16;100.00
54882;BME280;40775;51.448;4.742;2024-03-06T04:18:46;101854.47;;;5.15;100.00
54882;BME280;40775;51.448;4.742;2024-03-06T04:21:14;101855.19;;;5.13;100.00
54882;BME280;40775;51.448;4.742;2024-03-06T04:23:43;101859.97;;;5.05;100.00
54882;BME280;40775;51.448;4.742;2024-03-06T04:26:11;101862.09;;;5.12;100.00
54882;BME280;40775;51.448;4.742;2024-03-06T04:28:38;101871.63;;;5.12;100.00
54882;BME280;40775;51.448;4.742;2024-03-06T04:31:06;101869.56;;;5.06;100.00
54882;BME280;40775;51.448;4.742;2024-03-06T04:33:33;101872.72;;;5.01;100.00
54882;BME280;40775;51.448;4.742;2024-03-06T04:36:04;101864.91;;;5.01;100.00
54882;BME280;40775;51.448;4.742;2024-03-06T04:38:35;101866.34;;;4.95;100.00
54882;BME280;40775;51.448;4.742;2024-03-06T04:41:02;101876.84;;;4.97;100.00
54882;BME280;40775;51.448;4.742;2024-03-06T04:43:31;101874.75;;;4.91;100.00
54882;BME280;40775;51.448;4.742;2024-03-06T04:45:58;101878.06;;;4.89;100.00
54882;BME280;40775;51.448;4.742;2024-03-06T04:48:25;101887.44;;;5.00;100.00
54882;BME280;40775;51.448;4.742;2024-03-06T04:50:52;101885.38;;;4.94;100.00
54882;BME280;40775;51.448;4.742;2024-03-06T04:53:19;101887.41;;;4.85;100.00
54882;BME280;40775;51.448;4.742;2024-03-06T04:55:49;101890.56;;;4.94;100.00
54882;BME280;40775;51.448;4.742;2024-03-06T04:58:30;101890.56;;;4.94;100.00
54882;BME280;40775;51.448;4.742;2024-03-06T05:00:57;101898.06;;;4.90;100.00
54882;BME280;40775;51.448;4.742;2024-03-06T05:03:24;101898.78;;;4.87;100.00
54882;BME280;40775;51.448;4.742;2024-03-06T05:06:09;101899.94;;;4.78;100.00
54882;BME280;40775;51.448;4.742;2024-03-06T05:08:53;101908.03;;;4.82;100.00
54882;BME280;40775;51.448;4.742;2024-03-06T05:11:38;101902.56;;;4.78;100.00
54882;BME280;40775;51.448;4.742;2024-03-06T05:14:23;101913.13;;;4.81;100.00
54882;BME280;40775;51.448;4.742;2024-03-06T05:17:07;101914.75;;;4.79;100.00
54882;BME280;40775;51.448;4.742;2024-03-06T05:19:54;101915.13;;;4.85;100.00
54882;BME280;40775;51.448;4.742;2024-03-06T05:22:39;101923.53;;;4.81;100.00
54882;BME280;40775;51.448;4.742;2024-03-06T05:25:23;101918.53;;;4.84;100.00
54882;BME280;40775;51.448;4.742;2024-03-06T05:28:08;101918.88;;;4.75;100.00
54882;BME280;40775;51.448;4.742;2024-03-06T05:30:53;101930.91;;;4.73;100.00
54882;BME280;40775;51.448;4.742;2024-03-06T05:33:37;101937.22;;;4.63;100.00
54882;BME280;40775;51.448;4.742;2024-03-06T05:36:22;101935.41;;;4.62;100.00
54882;BME280;40775;51.448;4.742;2024-03-06T05:39:06;101943.75;;;4.57;100.00
54882;BME280;40775;51.448;4.742;2024-03-06T05:41:51;101951.25;;;4.52;100.00
54882;BME280;40775;51.448;4.742;2024-03-06T05:44:36;101956.56;;;4.54;100.00
54882;BME280;40775;51.448;4.742;2024-03-06T05:47:21;101951.44;;;4.55;100.00
54882;BME280;40775;51.448;4.742;2024-03-06T05:50:06;101951.81;;;4.61;100.00
54882;BME280;40775;51.448;4.742;2024-03-06T05:52:51;101954.63;;;4.64;100.00
54882;BME280;40775;51.448;4.742;2024-03-06T05:55:35;101961.81;;;4.69;100.00
54882;BME280;40775;51.448;4.742;2024-03-06T05:58:20;101956.81;;;4.72;100.00
54882;BME280;40775;51.448;4.742;2024-03-06T06:00:48;101960.31;;;4.72;100.00
54882;BME280;40775;51.448;4.742;2024-03-06T06:03:15;101964.44;;;4.69;100.00
54882;BME280;40775;51.448;4.742;2024-03-06T06:05:42;101971.09;;;4.78;100.00
54882;BME280;40775;51.448;4.742;2024-03-06T06:08:10;101967.84;;;4.68;100.00
54882;BME280;40775;51.448;4.742;2024-03-06T06:10:37;101973.03;;;4.68;100.00
54882;BME280;40775;51.448;4.742;2024-03-06T06:13:04;101978.16;;;4.66;100.00
54882;BME280;40775;51.448;4.742;2024-03-06T06:15:32;101983.75;;;4.59;100.00
54882;BME280;40775;51.448;4.742;2024-03-06T06:17:59;101983.38;;;4.53;100.00
54882;BME280;40775;51.448;4.742;2024-03-06T06:20:26;101991.06;;;4.51;100.00
54882;BME280;40775;51.448;4.742;2024-03-06T06:22:54;101991.16;;;4.53;100.00
54882;BME280;40775;51.448;4.742;2024-03-06T06:25:21;101989.66;;;4.56;100.00
54882;BME280;40775;51.448;4.742;2024-03-06T06:27:48;101990.56;;;4.57;100.00
54882;BME280;40775;51.448;4.742;2024-03-06T06:30:16;101990.22;;;4.65;100.00
54882;BME280;40775;51.448;4.742;2024-03-06T06:32:44;101997.94;;;4.64;100.00
54882;BME280;40775;51.448;4.742;2024-03-06T06:35:12;101993.69;;;4.38;100.00
54882;BME280;40775;51.448;4.742;2024-03-06T06:37:41;101999.91;;;4.40;100.00
54882;BME280;40775;51.448;4.742;2024-03-06T06:40:09;102007.47;;;4.50;100.00
54882;BME280;40775;51.448;4.742;2024-03-06T06:42:37;102007.56;;;4.52;100.00
54882;BME280;40775;51.448;4.742;2024-03-06T06:45:05;102034.47;;;4.52;100.00
54882;BME280;40775;51.448;4.742;2024-03-06T06:47:34;102035.59;;;7.91;100.00
54882;BME280;40775;51.448;4.742;2024-03-06T06:50:04;102026.34;;;9.46;100.00
54882;BME280;40775;51.448;4.742;2024-03-06T06:52:32;102030.56;;;10.45;100.00
54882;BME280;40775;51.448;4.742;2024-03-06T06:55:02;102008.44;;;11.07;100.00
54882;BME280;40775;51.448;4.742;2024-03-06T06:57:31;102007.41;;;11.51;100.00
54882;BME280;40775;51.448;4.742;2024-03-06T07:00:01;102010.28;;;11.83;100.00
54882;BME280;40775;51.448;4.742;2024-03-06T07:02:38;102011.09;;;12.07;100.00
54882;BME280;40775;51.448;4.742;2024-03-06T07:05:07;102010.72;;;12.23;100.00
54882;BME280;40775;51.448;4.742;2024-03-06T07:07:35;102010.38;;;12.40;100.00
54882;BME280;40775;51.448;4.742;2024-03-06T07:10:06;102007.22;;;12.51;100.00
54882;BME280;40775;51.448;4.742;2024-03-06T07:12:34;102010.25;;;12.63;100.00
54882;BME280;40775;51.448;4.742;2024-03-06T07:15:03;102014.06;;;12.73;100.00
54882;BME280;40775;51.448;4.742;2024-03-06T07:17:30;102017.75;;;12.80;100.00
54882;BME280;40775;51.448;4.742;2024-03-06T07:19:57;102028.69;;;12.92;100.00
54882;BME280;40775;51.448;4.742;2024-03-06T07:22:25;102027.06;;;12.97;100.00
54882;BME280;40775;51.448;4.742;2024-03-06T07:24:52;102022.88;;;13.04;100.00
54882;BME280;40775;51.448;4.742;2024-03-06T07:27:19;102026.56;;;13.10;100.00
54882;BME280;40775;51.448;4.742;2024-03-06T07:29:46;102034.81;;;13.19;100.00
54882;BME280;40775;51.448;4.742;2024-03-06T07:32:13;102031.53;;;13.28;100.00
54882;BME280;40775;51.448;4.742;2024-03-06T07:34:40;102034.31;;;13.34;100.00
54882;BME280;40775;51.448;4.742;2024-03-06T07:37:07;102040.66;;;13.41;100.00
54882;BME280;40775;51.448;4.742;2024-03-06T07:39:34;102040.81;;;13.45;100.00
54882;BME280;40775;51.448;4.742;2024-03-06T07:42:02;102041.81;;;13.50;100.00
54882;BME280;40775;51.448;4.742;2024-03-06T07:44:29;102042.81;;;13.54;100.00
54882;BME280;40775;51.448;4.742;2024-03-06T07:46:56;102045.50;;;13.57;100.00
54882;BME280;40775;51.448;4.742;2024-03-06T07:49:23;102049.13;;;13.60;100.00
54882;BME280;40775;51.448;4.742;2024-03-06T07:51:51;102055.38;;;13.64;100.00
54882;BME280;40775;51.448;4.742;2024-03-06T07:54:17;102053.75;;;13.69;100.00
54882;BME280;40775;51.448;4.742;2024-03-06T07:56:45;102056.50;;;13.72;100.00
54882;BME280;40775;51.448;4.742;2024-03-06T07:59:11;102059.22;;;13.75;100.00
54882;BME280;40775;51.448;4.742;2024-03-06T08:01:39;102062.78;;;13.77;100.00
54882;BME280;40775;51.448;4.742;2024-03-06T08:04:07;102058.41;;;13.78;100.00
54882;BME280;40775;51.448;4.742;2024-03-06T08:06:34;102061.09;;;13.79;100.00
54882;BME280;40775;51.448;4.742;2024-03-06T08:09:05;102057.66;;;13.83;100.00
54882;BME280;40775;51.448;4.742;2024-03-06T08:11:34;102068.34;;;13.88;100.00
54882;BME280;40775;51.448;4.742;2024-03-06T08:14:01;102064.00;;;13.90;100.00
54882;BME280;40775;51.448;4.742;2024-03-06T08:16:31;102062.31;;;13.93;100.00
54882;BME280;40775;51.448;4.742;2024-03-06T08:19:03;102057.03;;;13.93;100.00
54882;BME280;40775;51.448;4.742;2024-03-06T08:21:30;102068.53;;;13.96;100.00
54882;BME280;40775;51.448;4.742;2024-03-06T08:23:57;102069.53;;;13.99;100.00
54882;BME280;40775;51.448;4.742;2024-03-06T08:26:24;102071.31;;;14.00;100.00
54882;BME280;40775;51.448;4.742;2024-03-06T08:28:51;102076.63;;;14.02;100.00
54882;BME280;40775;51.448;4.742;2024-03-06T08:31:19;102082.84;;;14.04;100.00
54882;BME280;40775;51.448;4.742;2024-03-06T08:33:48;102078.47;;;14.04;100.00
54882;BME280;40775;51.448;4.742;2024-03-06T08:36:15;102088.22;;;14.07;100.00
54882;BME280;40775;51.448;4.742;2024-03-06T08:38:42;102093.50;;;14.07;100.00
54882;BME280;40775;51.448;4.742;2024-03-06T08:41:09;102088.22;;;14.07;100.00
54882;BME280;40775;51.448;4.742;2024-03-06T08:43:37;102080.34;;;14.10;100.00
54882;BME280;40775;51.448;4.742;2024-03-06T08:46:04;102094.50;;;14.12;100.00
54882;BME280;40775;51.448;4.742;2024-03-06T08:48:31;102097.22;;;14.15;100.00
54882;BME280;40775;51.448;4.742;2024-03-06T08:50:58;102103.38;;;14.15;100.00
54882;BME280;40775;51.448;4.742;2024-03-06T08:53:25;102099.00;;;14.16;100.00
54882;BME280;40775;51.448;4.742;2024-03-06T08:55:53;102107.81;;;14.16;100.00
54882;BME280;40775;51.448;4.742;2024-03-06T08:58:20;102106.88;;;14.14;100.00
54882;BME280;40775;51.448;4.742;2024-03-06T09:00:48;102108.66;;;14.15;100.00
54882;BME280;40775;51.448;4.742;2024-03-06T09:03:15;102113.13;;;14.18;100.00
54882;BME280;40775;51.448;4.742;2024-03-06T09:05:43;102113.13;;;14.18;100.00
54882;BME280;40775;51.448;4.742;2024-03-06T09:08:10;102114.09;;;14.21;100.00
54882;BME280;40775;51.448;4.742;2024-03-06T09:10:39;102115.00;;;14.22;100.00
54882;BME280;40775;51.448;4.742;2024-03-06T09:13:06;102120.25;;;14.20;100.00
54882;BME280;40775;51.448;4.742;2024-03-06T09:15:33;102120.28;;;14.22;100.00
54882;BME280;40775;51.448;4.742;2024-03-06T09:18:00;102118.63;;;14.26;100.00
54882;BME280;40775;51.448;4.742;2024-03-06T09:20:27;102130.13;;;14.28;100.00
54882;BME280;40775;51.448;4.742;2024-03-06T09:22:54;102129.25;;;14.27;100.00
54882;BME280;40775;51.448;4.742;2024-03-06T09:25:24;102132.63;;;14.23;100.00
54882;BME280;40775;51.448;4.742;2024-03-06T09:27:55;102131.72;;;14.22;100.00
54882;BME280;40775;51.448;4.742;2024-03-06T09:30:22;102130.00;;;14.23;100.00
54882;BME280;40775;51.448;4.742;2024-03-06T09:32:49;102138.91;;;14.27;100.00
54882;BME280;40775;51.448;4.742;2024-03-06T09:35:17;102148.59;;;14.26;100.00
54882;BME280;40775;51.448;4.742;2024-03-06T09:37:45;102146.84;;;14.27;100.00
54882;BME280;40775;51.448;4.742;2024-03-06T09:40:21;102149.47;;;14.27;100.00
54882;BME280;40775;51.448;4.742;2024-03-06T09:42:50;102140.63;;;14.25;100.00
54882;BME280;40775;51.448;4.742;2024-03-06T09:45:18;102145.09;;;14.27;100.00
54882;BME280;40775;51.448;4.742;2024-03-06T09:47:47;102145.09;;;14.27;100.00
54882;BME280;40775;51.448;4.742;2024-03-06T09:50:17;102148.66;;;14.29;100.00
54882;BME280;40775;51.448;4.742;2024-03-06T09:52:51;102160.19;;;14.33;100.00
54882;BME280;40775;51.448;4.742;2024-03-06T09:55:21;102154.88;;;14.31;100.00
54882;BME280;40775;51.448;4.742;2024-03-06T09:57:49;102158.44;;;14.33;100.00
54882;BME280;40775;51.448;4.742;2024-03-06T10:00:17;102154.91;;;14.33;100.00
54882;BME280;40775;51.448;4.742;2024-03-06T10:03:01;102159.31;;;14.32;100.00
54882;BME280;40775;51.448;4.742;2024-03-06T10:05:30;102154.88;;;14.31;100.00
54882;BME280;40775;51.448;4.742;2024-03-06T10:07:58;102162.72;;;14.28;100.00
54882;BME280;40775;51.448;4.742;2024-03-06T10:10:26;102157.47;;;14.30;100.00
54882;BME280;40775;51.448;4.742;2024-03-06T10:12:53;102164.59;;;14.32;100.00
54882;BME280;40775;51.448;4.742;2024-03-06T10:15:21;102159.34;;;14.34;100.00
54882;BME280;40775;51.448;4.742;2024-03-06T10:17:49;102163.78;;;14.35;100.00
54882;BME280;40775;51.448;4.742;2024-03-06T10:20:23;102173.44;;;14.34;100.00
54882;BME280;40775;51.448;4.742;2024-03-06T10:22:53;102175.28;;;14.37;100.00
54882;BME280;40775;51.448;4.742;2024-03-06T10:25:25;102180.56;;;14.37;100.00
54882;BME280;40775;51.448;4.742;2024-03-06T10:28:11;102173.59;;;14.40;100.00
54882;BME280;40775;51.448;4.742;2024-03-06T10:30:40;102182.38;;;14.39;100.00
54882;BME280;40775;51.448;4.742;2024-03-06T10:33:13;102179.75;;;14.39;100.00
54882;BME280;40775;51.448;4.742;2024-03-06T10:35:45;102185.94;;;14.41;100.00
54882;BME280;40775;51.448;4.742;2024-03-06T10:38:12;102184.22;;;14.42;100.00
54882;BME280;40775;51.448;4.742;2024-03-06T10:40:42;102182.47;;;14.42;100.00
54882;BME280;40775;51.448;4.742;2024-03-06T10:43:10;102193.03;;;14.42;100.00
54882;BME280;40775;51.448;4.742;2024-03-06T10:48:18;102190.50;;;14.45;100.00
54882;BME280;40775;51.448;4.742;2024-03-06T10:50:47;102189.63;;;14.46;100.00
54882;BME280;40775;51.448;4.742;2024-03-06T10:53:17;102185.94;;;14.41;100.00
54882;BME280;40775;51.448;4.742;2024-03-06T10:55:50;102180.66;;;14.41;100.00
54882;BME280;40775;51.448;4.742;2024-03-06T10:58:19;102197.53;;;14.45;100.00
54882;BME280;40775;51.448;4.742;2024-03-06T11:00:48;102203.59;;;14.42;100.00
54882;BME280;40775;51.448;4.742;2024-03-06T11:03:16;102201.03;;;14.44;100.00
54882;BME280;40775;51.448;4.742;2024-03-06T11:05:45;102196.53;;;14.41;100.00
54882;BME280;40775;51.448;4.742;2024-03-06T11:08:15;102196.63;;;14.44;100.00
54882;BME280;40775;51.448;4.742;2024-03-06T11:10:44;102193.09;;;14.44;100.00
54882;BME280;40775;51.448;4.742;2024-03-06T11:15:48;102196.72;;;14.47;100.00
54882;BME280;40775;51.448;4.742;2024-03-06T11:18:45;102196.84;;;14.52;100.00
54882;BME280;40775;51.448;4.742;2024-03-06T11:24:20;102207.28;;;14.47;100.00
54882;BME280;40775;51.448;4.742;2024-03-06T11:26:56;102209.16;;;14.51;100.00
54882;BME280;40775;51.448;4.742;2024-03-06T11:29:28;102202.19;;;14.53;100.00
54882;BME280;40775;51.448;4.742;2024-03-06T11:32:08;102205.69;;;14.52;100.00
54882;BME280;40775;51.448;4.742;2024-03-06T11:34:36;102203.97;;;14.55;100.00
54882;BME280;40775;51.448;4.742;2024-03-06T11:37:07;102205.69;;;14.52;100.00
54882;BME280;40775;51.448;4.742;2024-03-06T11:39:37;102212.75;;;14.53;100.00
54882;BME280;40775;51.448;4.742;2024-03-06T11:42:06;102213.66;;;14.54;100.00
54882;BME280;40775;51.448;4.742;2024-03-06T11:44:37;102215.47;;;14.57;100.00
54882;BME280;40775;51.448;4.742;2024-03-06T11:47:18;102223.41;;;14.57;100.00
54882;BME280;40775;51.448;4.742;2024-03-06T11:49:45;102214.69;;;14.61;100.00
54882;BME280;40775;51.448;4.742;2024-03-06T11:52:12;102221.75;;;14.62;100.00
54882;BME280;40775;51.448;4.742;2024-03-06T11:54:40;102215.53;;;14.60;100.00
54882;BME280;40775;51.448;4.742;2024-03-06T11:57:07;102219.97;;;14.61;100.00
54882;BME280;40775;51.448;4.742;2024-03-06T11:59:37;102221.72;;;14.60;100.00
54882;BME280;40775;51.448;4.742;2024-03-06T12:02:07;102228.75;;;14.60;100.00
54882;BME280;40775;51.448;4.742;2024-03-06T12:04:35;102221.75;;;14.62;100.00
54882;BME280;40775;51.448;4.742;2024-03-06T12:07:07;102220.06;;;14.64;100.00
54882;BME280;40775;51.448;4.742;2024-03-06T12:09:38;102221.84;;;14.65;100.00
54882;BME280;40775;51.448;4.742;2024-03-06T12:12:10;102223.56;;;14.63;100.00
54882;BME280;40775;51.448;4.742;2024-03-06T12:14:38;102217.44;;;14.65;100.00
54882;BME280;40775;51.448;4.742;2024-03-06T12:17:13;102216.63;;;14.68;100.00
54882;BME280;40775;51.448;4.742;2024-03-06T12:19:43;102222.84;;;14.70;100.00
54882;BME280;40775;51.448;4.742;2024-03-06T12:22:12;102220.19;;;14.70;100.00
54882;BME280;40775;51.448;4.742;2024-03-06T12:24:41;102224.66;;;14.72;100.00
54882;BME280;40775;51.448;4.742;2024-03-06T12:27:08;102208.81;;;14.72;100.00
54882;BME280;40775;51.448;4.742;2024-03-06T12:29:36;102219.31;;;14.69;100.00
54882;BME280;40775;51.448;4.742;2024-03-06T12:32:15;102219.31;;;14.69;100.00
54882;BME280;40775;51.448;4.742;2024-03-06T12:34:42;102218.44;;;14.70;100.00
54882;BME280;40775;51.448;4.742;2024-03-06T12:37:10;102226.41;;;14.72;100.00
54882;BME280;40775;51.448;4.742;2024-03-06T12:39:38;102232.59;;;14.72;100.00
54882;BME280;40775;51.448;4.742;2024-03-06T12:42:09;102224.63;;;14.71;100.00
54882;BME280;40775;51.448;4.742;2024-03-06T12:44:38;102212.34;;;14.73;100.00
54882;BME280;40775;51.448;4.742;2024-03-06T12:47:06;102218.50;;;14.72;100.00
54882;BME280;40775;51.448;4.742;2024-03-06T12:49:33;102221.13;;;14.72;100.00
54882;BME280;40775;51.448;4.742;2024-03-06T12:52:00;102224.66;;;14.72;100.00
54882;BME280;40775;51.448;4.742;2024-03-06T12:54:31;102220.28;;;14.73;100.00
54882;BME280;40775;51.448;4.742;2024-03-06T12:56:59;102215.03;;;14.74;100.00
54882;BME280;40775;51.448;4.742;2024-03-06T12:59:26;102223.00;;;14.76;100.00
54882;BME280;40775;51.448;4.742;2024-03-06T13:01:53;102218.56;;;14.75;100.00
54882;BME280;40775;51.448;4.742;2024-03-06T13:04:21;102213.25;;;14.73;100.00